Time,TemperatureF,DewpointF,PressureIn,WindDirection,WindDirectionDegrees,WindSpeedMPH,WindSpeedGustMPH,Humidity,HourlyPrecipIn,Conditions,Clouds,dailyrainin,SoftwareType,DateUTC
2013-03-02 00:02:00,44.3,42.4,30.34,SSW,207,0.0,0.0,93,0.00,,,0.00,Wunderground v.1.15,2013-03-02 08:02:00,
2013-03-02 00:08:00,44.4,42.5,30.34,SSW,207,0.0,1.0,93,0.00,,,0.00,Wunderground v.1.15,2013-03-02 08:08:00,
2013-03-02 00:14:00,44.3,42.4,30.34,SSW,207,0.0,0.0,93,0.00,,,0.00,Wunderground v.1.15,2013-03-02 08:14:00,
2013-03-02 00:20:00,44.2,42.3,30.33,SSW,207,0.0,0.0,93,0.00,,,0.00,Wunderground v.1.15,2013-03-02 08:20:00,
2013-03-02 00:26:00,44.2,42.0,30.33,SSW,207,0.0,0.0,92,0.00,,,0.00,Wunderground v.1.15,2013-03-02 08:26:00,
2013-03-02 00:32:00,44.1,41.9,30.33,SSW,207,0.0,0.0,92,0.00,,,0.00,Wunderground v.1.15,2013-03-02 08:32:00,
2013-03-02 00:38:00,44.0,41.8,30.33,SSW,207,0.0,0.0,92,0.00,,,0.00,Wunderground v.1.15,2013-03-02 08:38:00,
2013-03-02 00:44:00,44.0,41.8,30.33,SSW,207,0.0,0.0,92,0.00,,,0.00,Wunderground v.1.15,2013-03-02 08:44:00,
2013-03-02 00:50:00,43.8,41.9,30.33,SSW,207,0.0,0.0,93,0.00,,,0.00,Wunderground v.1.15,2013-03-02 08:50:00,
2013-03-02 00:55:00,43.7,41.5,30.33,SSW,207,0.0,0.0,92,0.00,,,0.00,Wunderground v.1.15,2013-03-02 08:55:00,
2013-03-02 01:00:00,43.6,41.7,30.33,SSW,207,0.0,0.0,93,0.00,,,0.00,Wunderground v.1.15,2013-03-02 09:00:00,
2013-03-02 01:06:00,43.5,41.6,30.33,SSW,207,0.0,0.0,93,0.00,,,0.00,Wunderground v.1.15,2013-03-02 09:06:00,
2013-03-02 01:12:00,43.4,41.5,30.33,SSW,207,0.0,0.0,93,0.00,,,0.00,Wunderground v.1.15,2013-03-02 09:12:00,
2013-03-02 01:18:00,43.3,41.4,30.33,SSW,207,0.0,0.0,93,0.00,,,0.00,Wunderground v.1.15,2013-03-02 09:18:00,
2013-03-02 01:24:00,43.2,41.6,30.33,SSW,207,0.0,0.0,94,0.00,,,0.00,Wunderground v.1.15,2013-03-02 09:24:00,
2013-03-02 01:30:00,43.1,41.2,30.33,SSW,207,0.0,0.0,93,0.00,,,0.00,Wunderground v.1.15,2013-03-02 09:30:00,
2013-03-02 01:36:00,43.0,41.4,30.32,SSW,207,0.0,0.0,94,0.00,,,0.00,Wunderground v.1.15,2013-03-02 09:36:00,
2013-03-02 01:41:00,43.0,41.4,30.32,SSW,207,0.0,0.0,94,0.00,,,0.00,Wunderground v.1.15,2013-03-02 09:41:00,
2013-03-02 01:47:00,42.8,41.2,30.32,SSW,207,0.0,0.0,94,0.00,,,0.00,Wunderground v.1.15,2013-03-02 09:47:00,
2013-03-02 01:53:00,42.6,40.7,30.32,SSW,207,0.0,0.0,93,0.00,,,0.00,Wunderground v.1.15,2013-03-02 09:53:00,
2013-03-02 01:59:00,42.4,40.8,30.32,SSW,207,0.0,0.0,94,0.00,,,0.00,Wunderground v.1.15,2013-03-02 09:59:00,
2013-03-02 02:04:00,42.3,40.7,30.32,SSW,207,0.0,0.0,94,0.00,,,0.00,Wunderground v.1.15,2013-03-02 10:04:00,
2013-03-02 02:09:00,42.2,40.6,30.32,SSW,207,0.0,0.0,94,0.00,,,0.00,Wunderground v.1.15,2013-03-02 10:09:00,
2013-03-02 02:14:00,42.2,40.6,30.32,SSW,207,0.0,0.0,94,0.00,,,0.00,Wunderground v.1.15,2013-03-02 10:14:00,
2013-03-02 02:19:00,42.4,40.8,30.31,SSW,207,0.0,0.0,94,0.00,,,0.00,Wunderground v.1.15,2013-03-02 10:19:00,
2013-03-02 02:24:00,42.3,40.7,30.31,SSW,207,0.0,0.0,94,0.00,,,0.00,Wunderground v.1.15,2013-03-02 10:24:00,
2013-03-02 02:29:00,42.2,40.6,30.31,SSW,207,0.0,0.0,94,0.00,,,0.00,Wunderground v.1.15,2013-03-02 10:29:00,
2013-03-02 02:34:00,42.1,40.5,30.31,SSW,207,0.0,0.0,94,0.00,,,0.00,Wunderground v.1.15,2013-03-02 10:34:00,
2013-03-02 02:39:00,42.1,40.5,30.31,SSW,207,0.0,0.0,94,0.00,,,0.00,Wunderground v.1.15,2013-03-02 10:39:00,
2013-03-02 02:44:00,42.0,40.4,30.31,SSW,207,0.0,0.0,94,0.00,,,0.00,Wunderground v.1.15,2013-03-02 10:44:00,
2013-03-02 02:49:00,41.9,40.3,30.31,SSW,207,0.0,0.0,94,0.00,,,0.00,Wunderground v.1.15,2013-03-02 10:49:00,
2013-03-02 02:54:00,41.9,40.3,30.31,SSW,207,0.0,0.0,94,0.00,,,0.00,Wunderground v.1.15,2013-03-02 10:54:00,
2013-03-02 02:59:00,41.9,40.6,30.31,SSW,207,0.0,0.0,95,0.00,,,0.00,Wunderground v.1.15,2013-03-02 10:59:00,
2013-03-02 03:04:00,41.9,40.6,30.30,SSW,207,0.0,0.0,95,0.00,,,0.00,Wunderground v.1.15,2013-03-02 11:04:00,
2013-03-02 03:09:00,41.9,40.6,30.30,SSW,207,0.0,0.0,95,0.00,,,0.00,Wunderground v.1.15,2013-03-02 11:09:00,
2013-03-02 03:14:00,41.9,40.3,30.30,SSW,207,0.0,0.0,94,0.00,,,0.00,Wunderground v.1.15,2013-03-02 11:14:00,
2013-03-02 03:20:00,41.8,40.5,30.29,SSW,207,0.0,0.0,95,0.00,,,0.00,Wunderground v.1.15,2013-03-02 11:20:00,
2013-03-02 03:25:00,41.7,40.1,30.29,SSW,207,0.0,1.0,94,0.00,,,0.00,Wunderground v.1.15,2013-03-02 11:25:00,
2013-03-02 03:30:00,41.6,40.3,30.29,SSW,207,0.0,0.0,95,0.00,,,0.00,Wunderground v.1.15,2013-03-02 11:30:00,
2013-03-02 03:35:00,41.6,40.3,30.29,SSW,207,0.0,0.0,95,0.00,,,0.00,Wunderground v.1.15,2013-03-02 11:35:00,
2013-03-02 03:40:00,41.6,40.3,30.29,SSW,207,0.0,0.0,95,0.00,,,0.00,Wunderground v.1.15,2013-03-02 11:40:00,
2013-03-02 03:45:00,41.7,40.4,30.29,SSW,207,0.0,0.0,95,0.00,,,0.00,Wunderground v.1.15,2013-03-02 11:45:00,
2013-03-02 03:50:00,41.8,40.5,30.28,SSW,207,0.0,0.0,95,0.00,,,0.00,Wunderground v.1.15,2013-03-02 11:50:00,
2013-03-02 03:55:00,42.0,40.7,30.28,SSW,207,0.0,1.0,95,0.00,,,0.00,Wunderground v.1.15,2013-03-02 11:55:00,
2013-03-02 04:00:00,42.0,40.7,30.28,SSW,207,0.0,0.0,95,0.00,,,0.00,Wunderground v.1.15,2013-03-02 12:00:00,
2013-03-02 04:05:00,42.0,40.7,30.28,SSW,207,0.0,0.0,95,0.00,,,0.00,Wunderground v.1.15,2013-03-02 12:05:00,
2013-03-02 04:10:00,42.0,40.7,30.28,SSW,207,0.0,0.0,95,0.00,,,0.00,Wunderground v.1.15,2013-03-02 12:10:00,
2013-03-02 04:15:00,42.0,40.7,30.28,SSW,207,0.0,0.0,95,0.00,,,0.00,Wunderground v.1.15,2013-03-02 12:15:00,
2013-03-02 04:20:00,42.0,40.7,30.28,SSW,207,0.0,0.0,95,0.00,,,0.00,Wunderground v.1.15,2013-03-02 12:20:00,
2013-03-02 04:25:00,42.0,40.7,30.28,SSW,207,0.0,0.0,95,0.00,,,0.00,Wunderground v.1.15,2013-03-02 12:25:00,
2013-03-02 04:30:00,42.0,40.7,30.28,SSW,207,0.0,0.0,95,0.00,,,0.00,Wunderground v.1.15,2013-03-02 12:30:00,
2013-03-02 04:35:00,42.0,40.7,30.27,SSW,207,0.0,0.0,95,0.00,,,0.00,Wunderground v.1.15,2013-03-02 12:35:00,
2013-03-02 04:40:00,41.9,40.3,30.27,SSW,207,0.0,0.0,94,0.00,,,0.00,Wunderground v.1.15,2013-03-02 12:40:00,
2013-03-02 04:45:00,41.8,40.2,30.27,SSW,207,0.0,1.0,94,0.00,,,0.00,Wunderground v.1.15,2013-03-02 12:45:00,
2013-03-02 04:50:00,41.8,40.2,30.27,SSW,207,0.0,0.0,94,0.00,,,0.00,Wunderground v.1.15,2013-03-02 12:50:00,
2013-03-02 04:55:00,41.8,40.5,30.27,SSW,207,0.0,0.0,95,0.00,,,0.00,Wunderground v.1.15,2013-03-02 12:55:00,
2013-03-02 05:00:00,41.9,40.6,30.28,SSW,207,0.0,0.0,95,0.00,,,0.00,Wunderground v.1.15,2013-03-02 13:00:00,
2013-03-02 05:05:00,41.9,40.3,30.28,SSW,207,0.0,0.0,94,0.00,,,0.00,Wunderground v.1.15,2013-03-02 13:05:00,
2013-03-02 05:10:00,41.9,40.3,30.28,SSW,207,0.0,1.0,94,0.00,,,0.00,Wunderground v.1.15,2013-03-02 13:10:00,
2013-03-02 05:15:00,41.6,40.0,30.28,SSW,207,0.0,1.0,94,0.00,,,0.00,Wunderground v.1.15,2013-03-02 13:15:00,
2013-03-02 05:20:00,41.6,40.0,30.28,SSW,207,0.0,0.0,94,0.00,,,0.00,Wunderground v.1.15,2013-03-02 13:20:00,
2013-03-02 05:25:00,41.5,39.9,30.28,SSW,207,0.0,0.0,94,0.00,,,0.00,Wunderground v.1.15,2013-03-02 13:25:00,
2013-03-02 05:30:00,41.5,39.9,30.27,SSW,207,0.0,0.0,94,0.00,,,0.00,Wunderground v.1.15,2013-03-02 13:30:00,
2013-03-02 05:35:00,41.6,40.0,30.27,SSW,207,0.0,0.0,94,0.00,,,0.00,Wunderground v.1.15,2013-03-02 13:35:00,
2013-03-02 05:40:00,41.5,39.9,30.27,SSW,207,0.0,0.0,94,0.00,,,0.00,Wunderground v.1.15,2013-03-02 13:40:00,
2013-03-02 05:45:00,41.6,40.3,30.27,SSW,207,0.0,0.0,95,0.00,,,0.00,Wunderground v.1.15,2013-03-02 13:45:00,
2013-03-02 05:50:00,41.7,40.4,30.26,SSW,207,0.0,0.0,95,0.00,,,0.00,Wunderground v.1.15,2013-03-02 13:50:00,
2013-03-02 05:55:00,41.9,40.6,30.26,SSW,207,0.0,0.0,95,0.00,,,0.00,Wunderground v.1.15,2013-03-02 13:55:00,
2013-03-02 06:00:00,42.0,40.7,30.26,SSW,207,0.0,0.0,95,0.00,,,0.00,Wunderground v.1.15,2013-03-02 14:00:00,
2013-03-02 06:05:00,42.2,40.9,30.26,SSW,207,0.0,0.0,95,0.00,,,0.00,Wunderground v.1.15,2013-03-02 14:05:00,
2013-03-02 06:10:00,42.5,41.2,30.26,SSW,207,0.0,0.0,95,0.00,,,0.00,Wunderground v.1.15,2013-03-02 14:10:00,
2013-03-02 06:15:00,42.4,40.8,30.26,SSW,207,0.0,0.0,94,0.00,,,0.00,Wunderground v.1.15,2013-03-02 14:15:00,
2013-03-02 06:20:00,42.3,40.7,30.26,SSW,207,0.0,0.0,94,0.00,,,0.00,Wunderground v.1.15,2013-03-02 14:20:00,
2013-03-02 06:25:00,42.2,40.6,30.26,SSW,207,0.0,1.0,94,0.00,,,0.00,Wunderground v.1.15,2013-03-02 14:25:00,
2013-03-02 06:30:00,42.2,40.9,30.26,SSW,207,0.0,0.0,95,0.00,,,0.00,Wunderground v.1.15,2013-03-02 14:30:00,
2013-03-02 06:35:00,42.3,41.0,30.26,SSW,207,0.0,0.0,95,0.00,,,0.00,Wunderground v.1.15,2013-03-02 14:35:00,
2013-03-02 06:40:00,42.5,41.2,30.26,SSW,207,0.0,0.0,95,0.00,,,0.00,Wunderground v.1.15,2013-03-02 14:40:00,
2013-03-02 06:45:00,42.8,41.5,30.26,SSW,207,0.0,0.0,95,0.00,,,0.00,Wunderground v.1.15,2013-03-02 14:45:00,
2013-03-02 06:50:00,42.9,41.6,30.26,SSW,207,0.0,1.0,95,0.00,,,0.00,Wunderground v.1.15,2013-03-02 14:50:00,
2013-03-02 06:55:00,43.0,41.7,30.26,SSW,207,0.0,1.0,95,0.00,,,0.00,Wunderground v.1.15,2013-03-02 14:55:00,
2013-03-02 07:00:00,43.1,41.5,30.26,SSW,207,0.0,0.0,94,0.00,,,0.00,Wunderground v.1.15,2013-03-02 15:00:00,
2013-03-02 07:05:00,43.2,41.6,30.26,SSW,207,0.0,0.0,94,0.00,,,0.00,Wunderground v.1.15,2013-03-02 15:05:00,
2013-03-02 07:10:00,43.3,41.7,30.26,SSW,207,0.0,0.0,94,0.00,,,0.00,Wunderground v.1.15,2013-03-02 15:10:00,
2013-03-02 07:15:00,43.3,41.7,30.25,SSW,207,0.0,0.0,94,0.00,,,0.00,Wunderground v.1.15,2013-03-02 15:15:00,
2013-03-02 07:20:00,43.3,41.7,30.25,SSW,207,0.0,0.0,94,0.00,,,0.00,Wunderground v.1.15,2013-03-02 15:20:00,
2013-03-02 07:25:00,43.5,41.9,30.25,SSW,207,0.0,0.0,94,0.00,,,0.00,Wunderground v.1.15,2013-03-02 15:25:00,
2013-03-02 07:30:00,43.6,42.0,30.25,SSW,207,0.0,0.0,94,0.00,,,0.00,Wunderground v.1.15,2013-03-02 15:30:00,
2013-03-02 07:35:00,43.6,42.0,30.25,SSW,207,0.0,0.0,94,0.00,,,0.00,Wunderground v.1.15,2013-03-02 15:35:00,
2013-03-02 07:40:00,43.4,41.8,30.25,SSW,207,0.0,0.0,94,0.00,,,0.00,Wunderground v.1.15,2013-03-02 15:40:00,
2013-03-02 07:45:00,43.5,41.9,30.24,SSW,207,0.0,0.0,94,0.00,,,0.00,Wunderground v.1.15,2013-03-02 15:45:00,
2013-03-02 07:50:00,43.5,41.9,30.24,SSW,207,0.0,0.0,94,0.00,,,0.00,Wunderground v.1.15,2013-03-02 15:50:00,
2013-03-02 07:55:00,43.5,41.9,30.24,SSW,207,0.0,0.0,94,0.00,,,0.00,Wunderground v.1.15,2013-03-02 15:55:00,
2013-03-02 08:00:00,43.7,42.1,30.24,SSW,207,0.0,0.0,94,0.00,,,0.00,Wunderground v.1.15,2013-03-02 16:00:00,
2013-03-02 08:05:00,43.8,42.2,30.24,SSW,207,0.0,1.0,94,0.00,,,0.00,Wunderground v.1.15,2013-03-02 16:05:00,
2013-03-02 08:10:00,44.0,42.4,30.24,SSW,207,0.0,0.0,94,0.00,,,0.00,Wunderground v.1.15,2013-03-02 16:10:00,
2013-03-02 08:15:00,44.2,42.6,30.23,SSW,207,0.0,1.0,94,0.00,,,0.00,Wunderground v.1.15,2013-03-02 16:15:00,
2013-03-02 08:20:00,44.2,42.6,30.23,SSW,207,1.0,1.0,94,0.00,,,0.00,Wunderground v.1.15,2013-03-02 16:20:00,
2013-03-02 08:25:00,44.1,42.5,30.23,SSW,207,0.0,3.0,94,0.00,,,0.00,Wunderground v.1.15,2013-03-02 16:25:00,
2013-03-02 08:30:00,44.3,42.7,30.23,SSW,207,0.0,0.0,94,0.00,,,0.00,Wunderground v.1.15,2013-03-02 16:30:00,
2013-03-02 08:35:00,44.5,42.9,30.23,SSW,207,0.0,1.0,94,0.00,,,0.00,Wunderground v.1.15,2013-03-02 16:35:00,
2013-03-02 08:40:00,44.7,43.1,30.23,SSW,207,0.0,0.0,94,0.00,,,0.00,Wunderground v.1.15,2013-03-02 16:40:00,
2013-03-02 08:45:00,44.9,43.3,30.23,SSW,207,0.0,1.0,94,0.00,,,0.00,Wunderground v.1.15,2013-03-02 16:45:00,
2013-03-02 08:50:00,45.1,43.5,30.23,SSW,207,0.0,0.0,94,0.00,,,0.00,Wunderground v.1.15,2013-03-02 16:50:00,
2013-03-02 08:55:00,45.3,43.7,30.23,SSW,207,0.0,0.0,94,0.00,,,0.00,Wunderground v.1.15,2013-03-02 16:55:00,
2013-03-02 09:00:00,45.4,43.5,30.23,SSW,207,0.0,0.0,93,0.00,,,0.00,Wunderground v.1.15,2013-03-02 17:00:00,
2013-03-02 09:05:00,45.5,43.6,30.23,SSW,207,0.0,1.0,93,0.00,,,0.00,Wunderground v.1.15,2013-03-02 17:05:00,
2013-03-02 09:10:00,45.5,43.6,30.23,SSW,207,0.0,0.0,93,0.00,,,0.00,Wunderground v.1.15,2013-03-02 17:10:00,
2013-03-02 09:15:00,45.6,43.7,30.23,SSW,207,0.0,0.0,93,0.00,,,0.00,Wunderground v.1.15,2013-03-02 17:15:00,
2013-03-02 09:20:00,45.7,43.8,30.23,SSW,207,0.0,0.0,93,0.00,,,0.00,Wunderground v.1.15,2013-03-02 17:20:00,
2013-03-02 09:25:00,45.8,43.9,30.23,SSW,207,0.0,1.0,93,0.00,,,0.00,Wunderground v.1.15,2013-03-02 17:25:00,
2013-03-02 09:30:00,45.9,44.0,30.23,SSW,207,0.0,0.0,93,0.00,,,0.00,Wunderground v.1.15,2013-03-02 17:30:00,
2013-03-02 09:35:00,46.0,44.1,30.23,SSW,207,0.0,0.0,93,0.00,,,0.00,Wunderground v.1.15,2013-03-02 17:35:00,
2013-03-02 09:40:00,46.1,43.9,30.23,SSW,207,0.0,0.0,92,0.00,,,0.00,Wunderground v.1.15,2013-03-02 17:40:00,
2013-03-02 09:45:00,46.0,43.8,30.23,SSW,207,0.0,1.0,92,0.00,,,0.00,Wunderground v.1.15,2013-03-02 17:45:00,
2013-03-02 09:50:00,46.0,44.1,30.23,SSW,207,0.0,0.0,93,0.00,,,0.00,Wunderground v.1.15,2013-03-02 17:50:00,
2013-03-02 09:55:00,46.1,44.2,30.23,SSW,207,0.0,1.0,93,0.00,,,0.00,Wunderground v.1.15,2013-03-02 17:55:00,
2013-03-02 10:00:00,46.3,44.1,30.22,SSW,207,0.0,0.0,92,0.00,,,0.00,Wunderground v.1.15,2013-03-02 18:00:00,
2013-03-02 10:05:00,46.5,44.3,30.22,SSW,207,0.0,0.0,92,0.00,,,0.00,Wunderground v.1.15,2013-03-02 18:05:00,
2013-03-02 10:10:00,46.7,44.5,30.22,SSW,207,0.0,1.0,92,0.00,,,0.00,Wunderground v.1.15,2013-03-02 18:10:00,
2013-03-02 10:15:00,46.8,44.6,30.21,SSW,207,0.0,1.0,92,0.00,,,0.00,Wunderground v.1.15,2013-03-02 18:15:00,
2013-03-02 10:20:00,46.9,44.7,30.21,SSW,207,0.0,0.0,92,0.00,,,0.00,Wunderground v.1.15,2013-03-02 18:20:00,
2013-03-02 10:25:00,47.3,45.1,30.21,SSW,207,0.0,2.0,92,0.00,,,0.00,Wunderground v.1.15,2013-03-02 18:25:00,
2013-03-02 10:30:00,47.6,45.1,30.21,SSW,207,0.0,0.0,91,0.00,,,0.00,Wunderground v.1.15,2013-03-02 18:30:00,
2013-03-02 10:35:00,47.4,44.9,30.21,SSW,207,0.0,2.0,91,0.00,,,0.00,Wunderground v.1.15,2013-03-02 18:35:00,
2013-03-02 10:40:00,47.5,45.0,30.21,SSW,207,0.0,1.0,91,0.00,,,0.00,Wunderground v.1.15,2013-03-02 18:40:00,
2013-03-02 10:46:00,47.8,45.3,30.21,SSW,207,0.0,1.0,91,0.00,,,0.00,Wunderground v.1.15,2013-03-02 18:46:00,
2013-03-02 10:51:00,48.2,46.6,30.21,SSW,207,0.0,0.0,94,0.00,,,0.00,Wunderground v.1.15,2013-03-02 18:51:00,
2013-03-02 10:56:00,48.2,46.6,30.21,SSW,207,0.0,1.0,94,0.00,,,0.00,Wunderground v.1.15,2013-03-02 18:56:00,
2013-03-02 11:01:00,48.3,45.5,30.20,SSW,207,0.0,1.0,90,0.00,,,0.00,Wunderground v.1.15,2013-03-02 19:01:00,
2013-03-02 11:06:00,48.0,45.2,30.20,SSW,207,0.0,1.0,90,0.00,,,0.00,Wunderground v.1.15,2013-03-02 19:06:00,
2013-03-02 11:11:00,48.0,45.5,30.20,SSW,207,0.0,1.0,91,0.00,,,0.00,Wunderground v.1.15,2013-03-02 19:11:00,
2013-03-02 11:16:00,48.2,45.4,30.20,SSW,207,0.0,1.0,90,0.00,,,0.00,Wunderground v.1.15,2013-03-02 19:16:00,
2013-03-02 11:21:00,48.5,45.7,30.20,SSW,207,0.0,1.0,90,0.00,,,0.00,Wunderground v.1.15,2013-03-02 19:21:00,
2013-03-02 11:26:00,48.7,45.9,30.20,SSW,207,0.0,1.0,90,0.00,,,0.00,Wunderground v.1.15,2013-03-02 19:26:00,
2013-03-02 11:31:00,49.0,45.9,30.19,SSW,207,0.0,0.0,89,0.00,,,0.00,Wunderground v.1.15,2013-03-02 19:31:00,
2013-03-02 11:36:00,49.4,46.0,30.19,SSW,207,0.0,0.0,88,0.00,,,0.00,Wunderground v.1.15,2013-03-02 19:36:00,
2013-03-02 11:41:00,49.9,46.5,30.19,SSW,207,0.0,0.0,88,0.00,,,0.00,Wunderground v.1.15,2013-03-02 19:41:00,
2013-03-02 11:46:00,50.5,46.5,30.19,SSW,207,0.0,1.0,86,0.00,,,0.00,Wunderground v.1.15,2013-03-02 19:46:00,
2013-03-02 11:51:00,50.7,46.7,30.19,SSW,207,0.0,0.0,86,0.00,,,0.00,Wunderground v.1.15,2013-03-02 19:51:00,
2013-03-02 11:56:00,51.2,46.8,30.19,SSW,207,0.0,0.0,85,0.00,,,0.00,Wunderground v.1.15,2013-03-02 19:56:00,
2013-03-02 12:01:00,51.5,46.8,30.18,SSW,207,0.0,1.0,84,0.00,,,0.00,Wunderground v.1.15,2013-03-02 20:01:00,
2013-03-02 12:06:00,51.6,46.9,30.18,SSW,207,0.0,1.0,84,0.00,,,0.00,Wunderground v.1.15,2013-03-02 20:06:00,
2013-03-02 12:11:00,51.8,47.1,30.18,SSW,207,0.0,0.0,84,0.00,,,0.00,Wunderground v.1.15,2013-03-02 20:11:00,
2013-03-02 12:16:00,51.9,47.2,30.17,SSW,207,0.0,1.0,84,0.00,,,0.00,Wunderground v.1.15,2013-03-02 20:16:00,
2013-03-02 12:21:00,52.0,47.3,30.17,SSW,207,0.0,1.0,84,0.00,,,0.00,Wunderground v.1.15,2013-03-02 20:21:00,
2013-03-02 12:26:00,51.8,46.5,30.17,NE,46,0.0,3.0,82,0.00,,,0.00,Wunderground v.1.15,2013-03-02 20:26:00,
2013-03-02 12:31:00,50.8,46.5,30.17,NE,46,0.0,0.0,85,0.00,,,0.00,Wunderground v.1.15,2013-03-02 20:31:00,
2013-03-02 12:36:00,50.5,46.2,30.17,NE,47,1.0,2.0,85,0.00,,,0.00,Wunderground v.1.15,2013-03-02 20:36:00,
2013-03-02 12:41:00,50.3,46.3,30.17,East,86,4.0,4.0,86,0.00,,,0.00,Wunderground v.1.15,2013-03-02 20:41:00,
2013-03-02 12:46:00,50.5,46.5,30.16,East,89,0.0,4.0,86,0.00,,,0.00,Wunderground v.1.15,2013-03-02 20:46:00,
2013-03-02 12:51:00,50.8,46.8,30.16,East,92,0.0,1.0,86,0.00,,,0.00,Wunderground v.1.15,2013-03-02 20:51:00,
2013-03-02 12:56:00,51.6,47.5,30.16,East,93,0.0,1.0,86,0.00,,,0.00,Wunderground v.1.15,2013-03-02 20:56:00,
2013-03-02 13:01:00,52.4,48.0,30.15,East,93,0.0,0.0,85,0.00,,,0.00,Wunderground v.1.15,2013-03-02 21:01:00,
2013-03-02 13:06:00,52.7,47.7,30.15,East,92,0.0,1.0,83,0.00,,,0.00,Wunderground v.1.15,2013-03-02 21:06:00,
2013-03-02 13:11:00,52.3,47.3,30.15,East,92,0.0,0.0,83,0.00,,,0.00,Wunderground v.1.15,2013-03-02 21:11:00,
2013-03-02 13:16:00,52.4,47.7,30.14,East,92,0.0,1.0,84,0.00,,,0.00,Wunderground v.1.15,2013-03-02 21:16:00,
2013-03-02 13:21:00,53.0,48.0,30.14,East,92,0.0,0.0,83,0.00,,,0.00,Wunderground v.1.15,2013-03-02 21:21:00,
2013-03-02 13:26:00,53.8,48.4,30.14,East,92,0.0,0.0,82,0.00,,,0.00,Wunderground v.1.15,2013-03-02 21:26:00,
2013-03-02 13:31:00,54.5,48.5,30.13,East,92,1.0,2.0,80,0.00,,,0.00,Wunderground v.1.15,2013-03-02 21:31:00,
2013-03-02 13:36:00,54.1,48.1,30.13,East,94,1.0,4.0,80,0.00,,,0.00,Wunderground v.1.15,2013-03-02 21:36:00,
2013-03-02 13:41:00,54.2,48.5,30.13,East,94,0.0,2.0,81,0.00,,,0.00,Wunderground v.1.15,2013-03-02 21:41:00,
2013-03-02 13:46:00,54.6,48.9,30.13,East,94,0.0,2.0,81,0.00,,,0.00,Wunderground v.1.15,2013-03-02 21:46:00,
2013-03-02 13:51:00,55.0,48.9,30.13,East,94,0.0,0.0,80,0.00,,,0.00,Wunderground v.1.15,2013-03-02 21:51:00,
2013-03-02 13:56:00,55.3,49.2,30.13,East,94,0.0,2.0,80,0.00,,,0.00,Wunderground v.1.15,2013-03-02 21:56:00,
2013-03-02 14:01:00,55.7,49.3,30.12,East,94,0.0,3.0,79,0.00,,,0.00,Wunderground v.1.15,2013-03-02 22:01:00,
2013-03-02 14:06:00,56.1,49.3,30.12,East,94,0.0,3.0,78,0.00,,,0.00,Wunderground v.1.15,2013-03-02 22:06:00,
2013-03-02 14:11:00,56.5,49.7,30.12,East,94,0.0,1.0,78,0.00,,,0.00,Wunderground v.1.15,2013-03-02 22:11:00,
2013-03-02 14:16:00,56.7,49.6,30.13,East,94,0.0,1.0,77,0.00,,,0.00,Wunderground v.1.15,2013-03-02 22:16:00,
2013-03-02 14:21:00,56.8,49.0,30.13,East,94,0.0,1.0,75,0.00,,,0.00,Wunderground v.1.15,2013-03-02 22:21:00,
2013-03-02 14:26:00,56.9,49.4,30.13,North,349,0.0,3.0,76,0.00,,,0.00,Wunderground v.1.15,2013-03-02 22:26:00,
2013-03-02 14:31:00,57.1,48.9,30.12,North,350,2.0,7.0,74,0.00,,,0.00,Wunderground v.1.15,2013-03-02 22:31:00,
2013-03-02 14:36:00,57.3,48.7,30.12,NNW,331,2.0,10.0,73,0.00,,,0.00,Wunderground v.1.15,2013-03-02 22:36:00,
2013-03-02 14:41:00,57.4,48.4,30.12,NNW,327,2.0,4.0,72,0.00,,,0.00,Wunderground v.1.15,2013-03-02 22:41:00,
2013-03-02 14:46:00,57.5,48.5,30.12,NW,325,1.0,10.0,72,0.00,,,0.00,Wunderground v.1.15,2013-03-02 22:46:00,
2013-03-02 14:51:00,57.7,48.7,30.12,NNW,336,3.0,4.0,72,0.00,,,0.00,Wunderground v.1.15,2013-03-02 22:51:00,
2013-03-02 14:56:00,57.7,48.7,30.12,NW,311,6.0,10.0,72,0.00,,,0.00,Wunderground v.1.15,2013-03-02 22:56:00,
2013-03-02 15:01:00,57.9,48.2,30.13,NW,325,5.0,10.0,70,0.00,,,0.00,Wunderground v.1.15,2013-03-02 23:01:00,
2013-03-02 15:06:00,58.2,48.5,30.13,NW,319,4.0,10.0,70,0.00,,,0.00,Wunderground v.1.15,2013-03-02 23:06:00,
2013-03-02 15:11:00,58.4,48.3,30.13,West,277,6.0,13.0,69,0.00,,,0.00,Wunderground v.1.15,2013-03-02 23:11:00,
2013-03-02 15:16:00,58.1,48.0,30.13,North,355,6.0,13.0,69,0.00,,,0.00,Wunderground v.1.15,2013-03-02 23:16:00,
2013-03-02 15:21:00,57.9,47.8,30.13,North,350,6.0,9.0,69,0.00,,,0.00,Wunderground v.1.15,2013-03-02 23:21:00,
2013-03-02 15:27:00,57.5,47.4,30.13,NW,313,8.0,19.0,69,0.00,,,0.00,Wunderground v.1.15,2013-03-02 23:27:00,
2013-03-02 15:32:00,57.3,47.6,30.13,NNW,336,9.0,15.0,70,0.00,,,0.00,Wunderground v.1.15,2013-03-02 23:32:00,
2013-03-02 15:37:00,57.3,47.2,30.13,WNW,300,12.0,16.0,69,0.00,,,0.00,Wunderground v.1.15,2013-03-02 23:37:00,
2013-03-02 15:42:00,57.0,46.9,30.13,NW,312,14.0,19.0,69,0.00,,,0.00,Wunderground v.1.15,2013-03-02 23:42:00,
2013-03-02 15:47:00,56.7,47.0,30.13,NNW,330,14.0,23.0,70,0.00,,,0.00,Wunderground v.1.15,2013-03-02 23:47:00,
2013-03-02 15:52:00,56.6,46.9,30.13,NW,309,14.0,18.0,70,0.00,,,0.00,Wunderground v.1.15,2013-03-02 23:52:00,
2013-03-02 15:57:00,56.5,47.2,30.13,NW,325,11.0,18.0,71,0.00,,,0.00,Wunderground v.1.15,2013-03-02 23:57:00,
2013-03-02 16:02:00,56.4,47.1,30.13,NNW,327,10.0,16.0,71,0.00,,,0.00,Wunderground v.1.15,2013-03-03 00:02:00,
2013-03-02 16:07:00,56.3,47.0,30.13,NW,311,10.0,16.0,71,0.00,,,0.00,Wunderground v.1.15,2013-03-03 00:07:00,
2013-03-02 16:12:00,56.2,47.3,30.13,NNW,337,10.0,14.0,72,0.00,,,0.00,Wunderground v.1.15,2013-03-03 00:12:00,
2013-03-02 16:17:00,55.8,46.9,30.14,North,355,9.0,14.0,72,0.00,,,0.00,Wunderground v.1.15,2013-03-03 00:17:00,
2013-03-02 16:22:00,56.0,46.7,30.14,West,276,3.0,12.0,71,0.00,,,0.00,Wunderground v.1.15,2013-03-03 00:22:00,
2013-03-02 16:27:00,56.2,46.9,30.14,West,269,7.0,14.0,71,0.00,,,0.00,Wunderground v.1.15,2013-03-03 00:27:00,
2013-03-02 16:32:00,56.1,46.8,30.13,NW,309,9.0,16.0,71,0.00,,,0.00,Wunderground v.1.15,2013-03-03 00:32:00,
2013-03-02 16:37:00,55.9,46.3,30.13,West,275,5.0,16.0,70,0.00,,,0.00,Wunderground v.1.15,2013-03-03 00:37:00,
2013-03-02 16:42:00,55.9,46.3,30.13,NNW,337,9.0,18.0,70,0.00,,,0.00,Wunderground v.1.15,2013-03-03 00:42:00,
2013-03-02 16:47:00,56.0,46.4,30.12,NW,316,10.0,18.0,70,0.00,,,0.00,Wunderground v.1.15,2013-03-03 00:47:00,
2013-03-02 16:52:00,56.0,46.4,30.12,NW,321,9.0,16.0,70,0.00,,,0.00,Wunderground v.1.15,2013-03-03 00:52:00,
2013-03-02 16:57:00,55.9,46.3,30.12,NNW,333,10.0,16.0,70,0.00,,,0.00,Wunderground v.1.15,2013-03-03 00:57:00,
2013-03-02 17:02:00,55.9,46.3,30.12,NW,309,5.0,18.0,70,0.00,,,0.00,Wunderground v.1.15,2013-03-03 01:02:00,
2013-03-02 17:07:00,56.1,46.1,30.12,West,281,4.0,18.0,69,0.00,,,0.00,Wunderground v.1.15,2013-03-03 01:07:00,
2013-03-02 17:12:00,56.0,46.0,30.12,NW,311,7.0,12.0,69,0.00,,,0.00,Wunderground v.1.15,2013-03-03 01:12:00,
2013-03-02 17:17:00,55.7,46.1,30.11,North,355,5.0,15.0,70,0.00,,,0.00,Wunderground v.1.15,2013-03-03 01:17:00,
2013-03-02 17:22:00,55.6,46.0,30.11,NW,311,5.0,14.0,70,0.00,,,0.00,Wunderground v.1.15,2013-03-03 01:22:00,
2013-03-02 17:27:00,55.5,45.9,30.11,NW,325,5.0,15.0,70,0.00,,,0.00,Wunderground v.1.15,2013-03-03 01:27:00,
2013-03-02 17:32:00,55.2,46.0,30.11,NW,310,7.0,15.0,71,0.00,,,0.00,Wunderground v.1.15,2013-03-03 01:32:00,
2013-03-02 17:37:00,55.1,45.9,30.11,NNW,334,13.0,15.0,71,0.00,,,0.00,Wunderground v.1.15,2013-03-03 01:37:00,
2013-03-02 17:42:00,55.1,45.5,30.11,NNW,344,6.0,14.0,70,0.00,,,0.00,Wunderground v.1.15,2013-03-03 01:42:00,
2013-03-02 17:47:00,55.0,45.8,30.11,NNW,330,5.0,14.0,71,0.00,,,0.00,Wunderground v.1.15,2013-03-03 01:47:00,
2013-03-02 17:52:00,55.0,45.4,30.11,NNW,343,12.0,12.0,70,0.00,,,0.00,Wunderground v.1.15,2013-03-03 01:52:00,
2013-03-02 17:57:00,54.7,45.5,30.11,NW,314,2.0,13.0,71,0.00,,,0.00,Wunderground v.1.15,2013-03-03 01:57:00,
2013-03-02 18:02:00,54.5,44.9,30.10,WNW,302,10.0,13.0,70,0.00,,,0.00,Wunderground v.1.15,2013-03-03 02:02:00,
2013-03-02 18:07:00,54.3,45.1,30.10,West,269,3.0,13.0,71,0.00,,,0.00,Wunderground v.1.15,2013-03-03 02:07:00,
2013-03-02 18:12:00,54.2,45.0,30.10,NW,321,3.0,10.0,71,0.00,,,0.00,Wunderground v.1.15,2013-03-03 02:12:00,
2013-03-02 18:17:00,53.9,45.1,30.10,NW,319,5.0,10.0,72,0.00,,,0.00,Wunderground v.1.15,2013-03-03 02:17:00,
2013-03-02 18:22:00,53.6,44.8,30.10,West,278,4.0,12.0,72,0.00,,,0.00,Wunderground v.1.15,2013-03-03 02:22:00,
2013-03-02 18:27:00,53.0,44.9,30.10,NW,321,2.0,12.0,74,0.00,,,0.00,Wunderground v.1.15,2013-03-03 02:27:00,
2013-03-02 18:32:00,52.5,44.8,30.11,NNW,337,6.0,9.0,75,0.00,,,0.00,Wunderground v.1.15,2013-03-03 02:32:00,
2013-03-02 18:37:00,52.4,44.7,30.11,NW,325,3.0,10.0,75,0.00,,,0.00,Wunderground v.1.15,2013-03-03 02:37:00,
2013-03-02 18:42:00,52.4,45.1,30.11,NW,323,1.0,6.0,76,0.00,,,0.00,Wunderground v.1.15,2013-03-03 02:42:00,
2013-03-02 18:47:00,52.5,44.8,30.10,NNW,338,10.0,10.0,75,0.00,,,0.00,Wunderground v.1.15,2013-03-03 02:47:00,
2013-03-02 18:52:00,52.9,44.5,30.10,NNW,338,5.0,11.0,73,0.00,,,0.00,Wunderground v.1.15,2013-03-03 02:52:00,
2013-03-02 18:57:00,53.0,44.6,30.10,NW,307,5.0,12.0,73,0.00,,,0.00,Wunderground v.1.15,2013-03-03 02:57:00,
2013-03-02 19:02:00,52.9,44.5,30.09,NNW,345,3.0,9.0,73,0.00,,,0.00,Wunderground v.1.15,2013-03-03 03:02:00,
2013-03-02 19:07:00,52.6,44.5,30.09,North,5,5.0,9.0,74,0.00,,,0.00,Wunderground v.1.15,2013-03-03 03:07:00,
2013-03-02 19:12:00,52.3,44.6,30.09,NNW,340,6.0,6.0,75,0.00,,,0.00,Wunderground v.1.15,2013-03-03 03:12:00,
2013-03-02 19:17:00,52.4,44.7,30.10,NNW,337,4.0,7.0,75,0.00,,,0.00,Wunderground v.1.15,2013-03-03 03:17:00,
2013-03-02 19:22:00,52.8,44.4,30.10,North,360,8.0,9.0,73,0.00,,,0.00,Wunderground v.1.15,2013-03-03 03:22:00,
2013-03-02 19:27:00,53.2,44.8,30.10,NNW,337,4.0,12.0,73,0.00,,,0.00,Wunderground v.1.15,2013-03-03 03:27:00,
2013-03-02 19:32:00,53.0,44.9,30.10,NNW,344,3.0,9.0,74,0.00,,,0.00,Wunderground v.1.15,2013-03-03 03:32:00,
2013-03-02 19:37:00,52.6,45.2,30.10,NW,319,1.0,9.0,76,0.00,,,0.00,Wunderground v.1.15,2013-03-03 03:37:00,
2013-03-02 19:42:00,52.1,45.1,30.10,NNW,338,2.0,5.0,77,0.00,,,0.00,Wunderground v.1.15,2013-03-03 03:42:00,
2013-03-02 19:47:00,51.6,45.3,30.10,NNW,327,3.0,5.0,79,0.00,,,0.00,Wunderground v.1.15,2013-03-03 03:47:00,
2013-03-02 19:52:00,51.2,45.6,30.10,North,11,0.0,4.0,81,0.00,,,0.00,Wunderground v.1.15,2013-03-03 03:52:00,
2013-03-02 19:57:00,50.9,45.6,30.10,North,360,0.0,5.0,82,0.00,,,0.00,Wunderground v.1.15,2013-03-03 03:57:00,
2013-03-02 20:02:00,50.9,45.6,30.10,NNE,12,5.0,7.0,82,0.00,,,0.00,Wunderground v.1.15,2013-03-03 04:02:00,
2013-03-02 20:07:00,50.7,45.7,30.10,NNE,28,4.0,10.0,83,0.00,,,0.00,Wunderground v.1.15,2013-03-03 04:07:00,
2013-03-02 20:12:00,50.5,45.8,30.10,North,5,1.0,10.0,84,0.00,,,0.00,Wunderground v.1.15,2013-03-03 04:12:00,
2013-03-02 20:17:00,50.5,46.2,30.11,NNW,344,1.0,10.0,85,0.00,,,0.00,Wunderground v.1.15,2013-03-03 04:17:00,
2013-03-02 20:22:00,50.5,46.2,30.11,NW,319,4.0,12.0,85,0.00,,,0.00,Wunderground v.1.15,2013-03-03 04:22:00,
2013-03-02 20:27:00,51.6,46.0,30.11,WNW,295,2.0,14.0,81,0.00,,,0.00,Wunderground v.1.15,2013-03-03 04:27:00,
2013-03-02 20:32:00,51.7,45.1,30.12,West,281,3.0,13.0,78,0.00,,,0.01,Wunderground v.1.15,2013-03-03 04:32:00,
2013-03-02 20:37:00,51.7,44.7,30.12,NNW,344,9.0,14.0,77,0.00,,,0.01,Wunderground v.1.15,2013-03-03 04:37:00,
2013-03-02 20:42:00,51.3,44.0,30.12,NNW,328,9.0,15.0,76,0.00,,,0.01,Wunderground v.1.15,2013-03-03 04:42:00,
2013-03-02 20:48:00,50.8,44.2,30.13,NW,310,4.0,15.0,78,0.00,,,0.01,Wunderground v.1.15,2013-03-03 04:48:00,
2013-03-02 20:53:00,50.5,43.9,30.13,WNW,285,3.0,9.0,78,0.00,,,0.01,Wunderground v.1.15,2013-03-03 04:53:00,
2013-03-02 20:58:00,50.1,43.8,30.13,WNW,300,5.0,12.0,79,0.00,,,0.01,Wunderground v.1.15,2013-03-03 04:58:00,
2013-03-02 21:00:00,50.0,44.1,30.13,West,269,10.0,11.0,80,0.00,,,0.01,Wunderground v.1.15,2013-03-03 05:00:00,
2013-03-02 21:05:00,49.9,43.3,30.14,NNW,339,7.0,15.0,78,0.00,,,0.01,Wunderground v.1.15,2013-03-03 05:05:00,
2013-03-02 21:10:00,49.7,42.8,30.14,NW,311,7.0,19.0,77,0.00,,,0.01,Wunderground v.1.15,2013-03-03 05:10:00,
2013-03-02 21:15:00,49.6,42.3,30.14,NNW,330,4.0,20.0,76,0.00,,,0.01,Wunderground v.1.15,2013-03-03 05:15:00,
2013-03-02 21:20:00,49.5,42.2,30.14,NW,307,5.0,10.0,76,0.00,,,0.01,Wunderground v.1.15,2013-03-03 05:20:00,
2013-03-02 21:25:00,49.1,42.2,30.14,WNW,284,9.0,18.0,77,0.00,,,0.01,Wunderground v.1.15,2013-03-03 05:25:00,
2013-03-02 21:30:00,49.0,42.1,30.14,West,265,4.0,8.0,77,0.00,,,0.01,Wunderground v.1.15,2013-03-03 05:30:00,
2013-03-02 21:35:00,48.9,42.0,30.15,WNW,294,3.0,11.0,77,0.00,,,0.01,Wunderground v.1.15,2013-03-03 05:35:00,
2013-03-02 21:40:00,49.1,41.5,30.15,WNW,297,5.0,7.0,75,0.00,,,0.01,Wunderground v.1.15,2013-03-03 05:40:00,
2013-03-02 21:45:00,49.0,41.4,30.15,West,267,2.0,13.0,75,0.00,,,0.01,Wunderground v.1.15,2013-03-03 05:45:00,
2013-03-02 21:50:00,49.0,41.1,30.15,NW,306,9.0,9.0,74,0.00,,,0.01,Wunderground v.1.15,2013-03-03 05:50:00,
2013-03-02 21:55:00,49.0,41.1,30.15,NW,306,6.0,12.0,74,0.00,,,0.01,Wunderground v.1.15,2013-03-03 05:55:00,
2013-03-02 22:00:00,49.1,40.5,30.15,West,280,10.0,15.0,72,0.00,,,0.01,Wunderground v.1.15,2013-03-03 06:00:00,
2013-03-02 22:05:00,49.0,40.4,30.15,WNW,284,9.0,16.0,72,0.00,,,0.01,Wunderground v.1.15,2013-03-03 06:05:00,
2013-03-02 22:10:00,48.9,39.9,30.15,WSW,253,10.0,13.0,71,0.00,,,0.01,Wunderground v.1.15,2013-03-03 06:10:00,
2013-03-02 22:15:00,48.7,40.1,30.15,WNW,286,8.0,17.0,72,0.00,,,0.01,Wunderground v.1.15,2013-03-03 06:15:00,
2013-03-02 22:20:00,48.5,39.9,30.16,WNW,292,13.0,15.0,72,0.00,,,0.01,Wunderground v.1.15,2013-03-03 06:20:00,
2013-03-02 22:25:00,48.6,39.6,30.16,West,273,5.0,17.0,71,0.00,,,0.01,Wunderground v.1.15,2013-03-03 06:25:00,
2013-03-02 22:30:00,48.4,40.1,30.16,WNW,287,10.0,12.0,73,0.00,,,0.01,Wunderground v.1.15,2013-03-03 06:30:00,
2013-03-02 22:35:00,48.3,39.7,30.16,West,277,12.0,16.0,72,0.00,,,0.01,Wunderground v.1.15,2013-03-03 06:35:00,
2013-03-02 22:40:00,48.4,39.8,30.16,West,260,5.0,11.0,72,0.00,,,0.01,Wunderground v.1.15,2013-03-03 06:40:00,
2013-03-02 22:45:00,48.4,40.1,30.16,WNW,292,11.0,15.0,73,0.00,,,0.01,Wunderground v.1.15,2013-03-03 06:45:00,
2013-03-02 22:50:00,48.4,39.8,30.17,WNW,290,6.0,10.0,72,0.00,,,0.01,Wunderground v.1.15,2013-03-03 06:50:00,
2013-03-02 22:55:00,48.4,39.4,30.17,WNW,298,6.0,14.0,71,0.00,,,0.01,Wunderground v.1.15,2013-03-03 06:55:00,
2013-03-02 23:00:00,48.5,38.4,30.17,WNW,287,10.0,11.0,68,0.00,,,0.01,Wunderground v.1.15,2013-03-03 07:00:00,
2013-03-02 23:05:00,48.6,38.5,30.17,WNW,294,5.0,14.0,68,0.00,,,0.01,Wunderground v.1.15,2013-03-03 07:05:00,
2013-03-02 23:10:00,48.5,38.4,30.17,WNW,288,5.0,9.0,68,0.00,,,0.01,Wunderground v.1.15,2013-03-03 07:10:00,
2013-03-02 23:15:00,48.3,37.8,30.17,West,271,10.0,13.0,67,0.00,,,0.01,Wunderground v.1.15,2013-03-03 07:15:00,
2013-03-02 23:20:00,48.0,37.9,30.17,NW,304,11.0,11.0,68,0.00,,,0.01,Wunderground v.1.15,2013-03-03 07:20:00,
2013-03-02 23:25:00,47.8,37.7,30.17,West,267,4.0,13.0,68,0.00,,,0.01,Wunderground v.1.15,2013-03-03 07:25:00,
2013-03-02 23:30:00,47.6,37.6,30.17,West,275,6.0,10.0,68,0.00,,,0.01,Wunderground v.1.15,2013-03-03 07:30:00,
2013-03-02 23:35:00,47.3,37.3,30.17,WNW,290,4.0,10.0,68,0.00,,,0.01,Wunderground v.1.15,2013-03-03 07:35:00,
2013-03-02 23:40:00,47.3,37.3,30.17,West,269,5.0,7.0,68,0.00,,,0.01,Wunderground v.1.15,2013-03-03 07:40:00,
2013-03-02 23:45:00,47.3,37.3,30.18,West,272,5.0,10.0,68,0.00,,,0.01,Wunderground v.1.15,2013-03-03 07:45:00,
2013-03-02 23:50:00,47.3,36.9,30.18,West,269,5.0,6.0,67,0.00,,,0.01,Wunderground v.1.15,2013-03-03 07:50:00,
2013-03-02 23:55:00,47.2,36.8,30.18,WSW,254,3.0,7.0,67,0.00,,,0.01,Wunderground v.1.15,2013-03-03 07:55:00,